createdAt,value
2023-05-13T06:45:30.322Z,97052.66
2023-05-13T06:47:57.925Z,97052.97
2023-05-13T06:50:25.548Z,97051.78
2023-05-13T06:52:53.056Z,97052.13
2023-05-13T06:55:20.642Z,97054.59
2023-05-13T06:57:48.367Z,97060.13
2023-05-13T07:00:16.873Z,97062.03
2023-05-13T07:02:45.797Z,97054.25
2023-05-13T07:05:13.611Z,97058.03
2023-05-13T07:07:42.229Z,97052.78
2023-05-13T07:10:10.649Z,97055.50
2023-05-13T07:12:38.289Z,97051.66
2023-05-13T07:15:07.017Z,97056.63
2023-05-13T07:17:34.765Z,97063.94
2023-05-13T07:20:03.786Z,97056.44
2023-05-13T07:22:31.892Z,97058.28
2023-05-13T07:24:59.568Z,97056.63
2023-05-13T07:27:27.260Z,97063.69
2023-05-13T07:29:55.255Z,97058.13
2023-05-13T07:32:22.788Z,97055.28
2023-05-13T07:34:50.345Z,97059.75
2023-05-13T07:37:19.270Z,97064.97
2023-05-13T07:39:47.074Z,97066.19
2023-05-13T07:42:15.264Z,97070.38
2023-05-13T07:44:42.797Z,97070.03
2023-05-13T07:47:10.410Z,97071.50
2023-05-13T07:49:38.012Z,97073.22
2023-05-13T07:52:05.968Z,97071.41
2023-05-13T07:54:34.876Z,97065.50
2023-05-13T07:57:02.774Z,97068.16
2023-05-13T07:59:30.471Z,97074.50
2023-05-13T08:01:58.010Z,97071.44
2023-05-13T08:04:26.023Z,97074.31
2023-05-13T08:06:53.771Z,97074.56
2023-05-13T08:09:21.383Z,97077.41
2023-05-13T08:11:50.289Z,97082.94
2023-05-13T08:14:17.771Z,97069.81
2023-05-13T08:16:45.424Z,97072.47
2023-05-13T08:19:14.677Z,97079.22
2023-05-13T08:21:42.269Z,97081.88
2023-05-13T08:24:09.856Z,97069.41
2023-05-13T08:26:38.205Z,97080.84
2023-05-13T08:29:08.588Z,97077.19
2023-05-13T08:31:36.180Z,97076.50
2023-05-13T08:34:03.701Z,97072.22
2023-05-13T08:36:31.207Z,97075.59
2023-05-13T08:38:58.752Z,97085.81
2023-05-13T08:41:26.272Z,97076.63
2023-05-13T08:43:55.433Z,97081.06
2023-05-13T08:46:25.704Z,97084.97
2023-05-13T08:48:53.368Z,97081.31
2023-05-13T08:51:20.872Z,97080.84
2023-05-13T08:53:48.952Z,97091.94
2023-05-13T08:56:16.627Z,97068.00
2023-05-13T08:58:44.127Z,97083.31
2023-05-13T09:01:12.060Z,97094.13
2023-05-13T09:03:48.652Z,97089.78
2023-05-13T09:06:16.396Z,97088.09
2023-05-13T09:08:44.084Z,97085.19
2023-05-13T09:11:11.590Z,97079.00
2023-05-13T09:13:39.154Z,97080.66
2023-05-13T09:16:07.261Z,97084.47
2023-05-13T09:18:35.107Z,97080.38
2023-05-13T09:21:24.641Z,97088.41
2023-05-13T09:23:57.275Z,97085.44
2023-05-13T09:26:28.487Z,97080.44
2023-05-13T09:29:15.513Z,97092.69
2023-05-13T09:31:43.310Z,97082.91
2023-05-13T09:34:10.928Z,97091.38
2023-05-13T09:36:39.852Z,97097.91
2023-05-13T09:39:07.438Z,97091.28
2023-05-13T09:41:35.908Z,97086.91
2023-05-13T09:44:04.132Z,97094.47
2023-05-13T09:46:32.458Z,97091.13
2023-05-13T09:49:00.336Z,97085.78
2023-05-13T09:51:28.246Z,97072.84
2023-05-13T09:54:03.991Z,97087.94
2023-05-13T09:56:32.081Z,97081.19
2023-05-13T09:58:59.784Z,97082.28
2023-05-13T10:01:28.513Z,97067.03
2023-05-13T10:03:56.903Z,97090.06
2023-05-13T10:06:26.475Z,97090.91
2023-05-13T10:08:55.116Z,97089.81
2023-05-13T10:11:24.674Z,97080.50
2023-05-13T10:13:58.223Z,97085.75
2023-05-13T10:16:26.388Z,97081.63
2023-05-13T10:18:54.108Z,97088.44
2023-05-13T10:21:21.747Z,97082.00
2023-05-13T10:23:51.876Z,97092.38
2023-05-13T10:26:20.908Z,97066.72
2023-05-13T10:28:50.380Z,97086.66
2023-05-13T10:31:18.508Z,97096.16
2023-05-13T10:33:46.671Z,97091.88
2023-05-13T10:36:51.653Z,97092.94
2023-05-13T10:39:28.895Z,97083.78
2023-05-13T10:42:40.281Z,97088.78
2023-05-13T10:45:10.280Z,97087.88
2023-05-13T10:47:40.202Z,97064.94
2023-05-13T10:50:09.614Z,97080.13
2023-05-13T10:52:44.587Z,97080.31
2023-05-13T10:55:19.238Z,97084.72
2023-05-13T10:58:09.414Z,97080.63
2023-05-13T11:00:39.208Z,97080.66
2023-05-13T11:03:11.118Z,97083.34
2023-05-13T11:05:40.645Z,97077.31
2023-05-13T11:08:08.287Z,97069.88
2023-05-13T11:10:36.342Z,97081.03
2023-05-13T11:13:22.427Z,97077.91
2023-05-13T11:15:52.247Z,97077.19
2023-05-13T11:18:20.179Z,97070.34
2023-05-13T11:20:52.464Z,97062.06
2023-05-13T11:23:20.951Z,97072.72
2023-05-13T11:25:48.962Z,97066.63
2023-05-13T11:28:18.432Z,97072.47
2023-05-13T11:30:56.397Z,97071.75
2023-05-13T11:33:24.145Z,97050.22
2023-05-13T11:35:56.051Z,97059.34
2023-05-13T11:38:24.891Z,97046.81
2023-05-13T11:40:53.300Z,97065.97
2023-05-13T11:43:22.494Z,97060.66
2023-05-13T11:45:50.461Z,97059.50
2023-05-13T11:48:23.538Z,97062.19
2023-05-13T11:50:52.142Z,97043.50
2023-05-13T11:53:23.299Z,97049.22
2023-05-13T11:55:51.598Z,97044.72
2023-05-13T11:58:19.271Z,97047.28
2023-05-13T12:00:46.839Z,97056.09
2023-05-13T12:03:16.316Z,97050.69
2023-05-13T12:05:45.988Z,97055.69
2023-05-13T12:08:13.529Z,97074.63
2023-05-13T12:10:43.826Z,97059.41
2023-05-13T12:13:11.503Z,97072.19
2023-05-13T12:15:39.266Z,97076.53
2023-05-13T12:18:07.423Z,97077.22
2023-05-13T12:20:34.976Z,97063.25
2023-05-13T12:23:04.552Z,97066.97
2023-05-13T12:25:43.413Z,97068.75
2023-05-13T12:28:13.263Z,97061.38
2023-05-13T12:30:42.428Z,97066.16
2023-05-13T12:33:14.595Z,97061.53
2023-05-13T12:35:42.349Z,97068.16
2023-05-13T12:38:16.117Z,97062.00
2023-05-13T12:40:43.741Z,97067.44
2023-05-13T12:43:12.391Z,97043.56
2023-05-13T12:45:44.003Z,97056.38
2023-05-13T12:48:12.466Z,97052.28
2023-05-13T12:50:40.122Z,97064.78
2023-05-13T12:53:07.673Z,97068.97
2023-05-13T12:55:39.802Z,97064.19
2023-05-13T12:58:10.857Z,97078.88
2023-05-13T13:00:38.626Z,97071.38
2023-05-13T13:03:06.396Z,97066.28
2023-05-13T13:05:34.108Z,97059.03
2023-05-13T13:08:02.347Z,97063.97
2023-05-13T13:10:29.964Z,97065.28
2023-05-13T13:12:58.814Z,97071.69
2023-05-13T13:15:26.342Z,97070.66
2023-05-13T13:17:53.933Z,97041.38
2023-05-13T13:20:22.338Z,97063.59
2023-05-13T13:22:49.869Z,97064.72
2023-05-13T13:25:17.406Z,97069.31
2023-05-13T13:27:45.177Z,97071.75
2023-05-13T13:30:15.420Z,97066.78
2023-05-13T13:32:42.988Z,97053.88
2023-05-13T13:35:11.234Z,97062.31
2023-05-13T13:37:38.790Z,97071.63
2023-05-13T13:40:07.455Z,97067.31
2023-05-13T13:42:44.109Z,97069.66
2023-05-13T13:45:14.360Z,97063.22
2023-05-13T13:47:42.271Z,97062.84
2023-05-13T13:50:10.698Z,97060.03
2023-05-13T13:52:38.182Z,97068.25
2023-05-13T13:55:06.681Z,97068.72
2023-05-13T13:57:34.232Z,97070.22
2023-05-13T14:00:01.792Z,97068.56
2023-05-13T14:02:30.814Z,97071.97
2023-05-13T14:04:58.513Z,97071.97
2023-05-13T14:07:26.234Z,97065.81
2023-05-13T14:09:53.706Z,97072.16
2023-05-13T14:12:21.251Z,97075.03
2023-05-13T14:14:48.782Z,97070.94
2023-05-13T14:17:16.267Z,97067.97
2023-05-13T14:19:45.101Z,97070.06
2023-05-13T14:22:12.765Z,97059.88
2023-05-13T14:24:40.570Z,97057.97
2023-05-13T14:27:08.055Z,97055.44
2023-05-13T14:29:35.596Z,97064.06
2023-05-13T14:32:03.786Z,97057.53
2023-05-13T14:34:31.398Z,97054.94
2023-05-13T14:37:00.271Z,97058.81
2023-05-13T14:39:28.096Z,97035.66
2023-05-13T14:41:55.899Z,97037.00
2023-05-13T14:44:23.403Z,97050.19
2023-05-13T14:46:51.231Z,97048.69
2023-05-13T14:49:18.739Z,97035.97
2023-05-13T14:51:46.290Z,97026.63
2023-05-13T14:54:15.111Z,97047.06
2023-05-13T14:56:42.687Z,97051.34
2023-05-13T14:59:10.270Z,97049.81
2023-05-13T15:01:38.335Z,97044.75
2023-05-13T15:04:06.323Z,97042.53
2023-05-13T15:06:33.934Z,97050.25
2023-05-13T15:09:01.467Z,97043.50
2023-05-13T15:11:30.874Z,97037.50
2023-05-13T15:13:58.420Z,97039.88
2023-05-13T15:16:26.068Z,97041.53
2023-05-13T15:18:53.606Z,97044.16
2023-05-13T15:21:21.194Z,97038.00
2023-05-13T15:23:48.724Z,97046.00
2023-05-13T15:26:16.205Z,97045.31
2023-05-13T15:28:45.048Z,97032.44
2023-05-13T15:31:12.580Z,97042.78
2023-05-13T15:33:40.112Z,97039.09
2023-05-13T15:36:09.802Z,97030.78
2023-05-13T15:38:37.372Z,97034.19
2023-05-13T15:41:05.188Z,97031.75
2023-05-13T15:43:34.097Z,97025.22
2023-05-13T15:46:03.100Z,97023.03
2023-05-13T15:48:30.875Z,97016.50
2023-05-13T15:50:58.424Z,97016.31
2023-05-13T15:53:25.982Z,97015.09
2023-05-13T15:55:53.511Z,97018.41
2023-05-13T15:58:21.437Z,97013.00
2023-05-13T16:00:48.938Z,97011.69
2023-05-13T16:03:18.092Z,97008.59
2023-05-13T16:05:45.851Z,97020.53
2023-05-13T16:08:13.408Z,97014.31
2023-05-13T16:10:41.068Z,97015.34
2023-05-13T16:13:08.637Z,97009.81
2023-05-13T16:15:36.167Z,97009.09
2023-05-13T16:18:03.802Z,97009.19
2023-05-13T16:20:32.728Z,97009.47
2023-05-13T16:23:00.264Z,97006.03
2023-05-13T16:25:27.751Z,96999.97
2023-05-13T16:27:56.519Z,96992.78
2023-05-13T16:30:24.359Z,96998.78
2023-05-13T16:32:54.289Z,96981.53
2023-05-13T16:35:22.098Z,97003.84
2023-05-13T16:37:51.358Z,96993.31
2023-05-13T16:40:19.044Z,96991.66
2023-05-13T16:42:47.284Z,96996.25
2023-05-13T16:45:15.083Z,97011.13
2023-05-13T16:47:42.632Z,97003.78
2023-05-13T16:50:10.882Z,96999.16
2023-05-13T16:52:38.496Z,96996.94
2023-05-13T16:55:08.324Z,96998.59
2023-05-13T16:57:35.858Z,96997.34
2023-05-13T17:00:03.548Z,97003.69
2023-05-13T17:02:31.362Z,97001.66
2023-05-13T17:04:58.927Z,97008.19
2023-05-13T17:07:26.417Z,97004.72
2023-05-13T17:09:54.151Z,97014.31
2023-05-13T17:12:23.156Z,97009.63
2023-05-13T17:14:50.698Z,96989.53
2023-05-13T17:17:18.261Z,97007.97
2023-05-13T17:19:45.894Z,97007.53
2023-05-13T17:22:13.397Z,97008.34
2023-05-13T17:24:41.121Z,97011.81
2023-05-13T17:27:08.898Z,97006.50
2023-05-13T17:29:37.759Z,97004.06
2023-05-13T17:32:05.862Z,97000.31
2023-05-13T17:34:33.354Z,97009.13
2023-05-13T17:37:00.861Z,97005.00
2023-05-13T17:39:28.413Z,97012.78
2023-05-13T17:41:55.944Z,97016.41
2023-05-13T17:44:23.927Z,97019.28
2023-05-13T17:46:52.962Z,97014.38
2023-05-13T17:49:20.725Z,97013.75
2023-05-13T17:51:48.275Z,97013.91
2023-05-13T17:54:15.776Z,97013.88
2023-05-13T17:56:43.276Z,97019.38
2023-05-13T17:59:11.708Z,97009.75
2023-05-13T18:01:39.219Z,97022.22
2023-05-13T18:04:08.173Z,97019.97
2023-05-13T18:06:35.644Z,97012.41
2023-05-13T18:09:03.452Z,97022.06
2023-05-13T18:11:31.577Z,97017.78
2023-05-13T18:13:59.133Z,97024.72
2023-05-13T18:16:26.655Z,97021.47
2023-05-13T18:18:57.274Z,97025.97
2023-05-13T18:21:28.844Z,97038.63
2023-05-13T18:23:56.983Z,97017.03
2023-05-13T18:26:24.498Z,97031.47
2023-05-13T18:28:52.028Z,97030.19
2023-05-13T18:31:19.619Z,97044.03
2023-05-13T18:33:47.204Z,97037.66
2023-05-13T18:36:14.712Z,97035.41
2023-05-13T18:38:45.831Z,97031.28
2023-05-13T18:41:13.369Z,97031.66
2023-05-13T18:43:40.874Z,97039.63
2023-05-13T18:46:08.743Z,97045.31
2023-05-13T18:48:36.367Z,97043.63
2023-05-13T18:51:04.129Z,97040.19
2023-05-13T18:53:31.623Z,97051.38
2023-05-13T18:56:00.503Z,97044.19
2023-05-13T18:58:28.565Z,97062.13
2023-05-13T19:00:56.156Z,97061.91
2023-05-13T19:03:23.821Z,97063.31
2023-05-13T19:05:52.118Z,97048.94
2023-05-13T19:08:19.712Z,97062.91
2023-05-13T19:10:47.248Z,97055.50
2023-05-13T19:13:19.656Z,97046.44
2023-05-13T19:15:47.203Z,97068.72
2023-05-13T19:18:14.748Z,97071.56
2023-05-13T19:20:43.498Z,97077.88
2023-05-13T19:23:11.020Z,97066.81
2023-05-13T19:25:42.034Z,97077.00
2023-05-13T19:28:09.814Z,97046.28
2023-05-13T19:30:38.828Z,97066.34
2023-05-13T19:33:06.829Z,97061.97
2023-05-13T19:35:35.032Z,97064.25
2023-05-13T19:38:03.001Z,97067.28
2023-05-13T19:40:30.533Z,97060.53
2023-05-13T19:42:58.072Z,97064.38
2023-05-13T19:45:25.819Z,97066.84
2023-05-13T19:47:56.235Z,97051.63
2023-05-13T19:50:24.081Z,97068.88
2023-05-13T19:52:52.627Z,97045.88
2023-05-13T19:55:20.334Z,97057.56
2023-05-13T19:57:48.425Z,97073.72
2023-05-13T20:00:16.833Z,97068.25
2023-05-13T20:02:44.479Z,97068.59
2023-05-13T20:05:13.362Z,97060.78
2023-05-13T20:07:41.060Z,97058.50
2023-05-13T20:10:10.047Z,97044.75
2023-05-13T20:12:37.632Z,97067.72
2023-05-13T20:15:06.642Z,97070.56
2023-05-13T20:17:34.292Z,97068.72
2023-05-13T20:20:01.994Z,97063.81
2023-05-13T20:22:30.961Z,97078.91
2023-05-13T20:24:58.938Z,97076.25
2023-05-13T20:27:26.454Z,97071.13
2023-05-13T20:29:55.607Z,97076.19
2023-05-13T20:32:24.918Z,97079.28
2023-05-13T20:34:54.301Z,97081.94
2023-05-13T20:37:23.948Z,97073.53
2023-05-13T20:39:54.262Z,97058.94
2023-05-13T20:42:22.746Z,97075.91
2023-05-13T20:44:50.698Z,97074.72
2023-05-13T20:47:18.410Z,97074.06
2023-05-13T20:49:46.471Z,97081.00
2023-05-13T20:52:14.071Z,97080.59
2023-05-13T20:54:42.177Z,97059.59
2023-05-13T20:57:11.191Z,97073.44
2023-05-13T20:59:38.691Z,97077.09
2023-05-13T21:02:06.444Z,97068.53
2023-05-13T21:04:33.925Z,97072.00
2023-05-13T21:07:01.459Z,97063.44
2023-05-13T21:09:29.004Z,97063.44
2023-05-13T21:11:56.562Z,97063.59
2023-05-13T21:14:25.548Z,97063.16
2023-05-13T21:16:53.046Z,97067.47
2023-05-13T21:19:21.911Z,97079.06
2023-05-13T21:21:49.415Z,97073.78
2023-05-13T21:24:18.012Z,97065.44
2023-05-13T21:26:45.534Z,97067.63
2023-05-13T21:29:13.097Z,97067.47
2023-05-13T21:31:42.548Z,97060.06
2023-05-13T21:34:10.173Z,97063.34
2023-05-13T21:36:38.931Z,97055.78
2023-05-13T21:39:06.784Z,97061.25
2023-05-13T21:41:34.381Z,97064.25
2023-05-13T21:44:01.896Z,97051.47
2023-05-13T21:46:29.560Z,97052.22
2023-05-13T21:48:59.621Z,97040.44
2023-05-13T21:51:27.295Z,97049.75
2023-05-13T21:53:54.806Z,97045.84
2023-05-13T21:56:22.503Z,97048.19
2023-05-13T21:58:50.567Z,97022.88
2023-05-13T22:01:19.253Z,97045.66
2023-05-13T22:03:46.799Z,97046.41
2023-05-13T22:06:15.718Z,97046.69
2023-05-13T22:08:43.270Z,97042.84
2023-05-13T22:11:11.281Z,97051.53
2023-05-13T22:13:39.080Z,97042.59
2023-05-13T22:16:06.760Z,97048.81
2023-05-13T22:21:01.747Z,97037.13
2023-05-13T22:23:30.997Z,97032.00
2023-05-13T22:25:58.494Z,97037.28
2023-05-13T22:28:26.062Z,97031.09
2023-05-13T22:30:53.728Z,97042.50
2023-05-13T22:33:21.286Z,97029.91
2023-05-13T22:35:48.817Z,97033.56
2023-05-13T22:38:16.349Z,97032.38
2023-05-13T22:40:45.221Z,97033.75
2023-05-13T22:43:12.696Z,97031.72
2023-05-13T22:45:40.521Z,97033.19
2023-05-13T22:48:08.300Z,97031.84
2023-05-13T22:50:35.858Z,97037.13
2023-05-13T22:53:03.685Z,97037.13
2023-05-13T22:55:31.203Z,97026.53
2023-05-13T22:58:00.091Z,97031.19
2023-05-13T23:00:27.655Z,97033.19
2023-05-13T23:02:55.908Z,97029.56
2023-05-13T23:05:23.456Z,97029.28
2023-05-13T23:07:51.135Z,97022.97
2023-05-13T23:10:18.743Z,97005.53
2023-05-13T23:12:46.270Z,97010.56
2023-05-13T23:15:16.063Z,97008.00
2023-05-13T23:17:43.746Z,96991.69
2023-05-13T23:20:12.123Z,97013.50
2023-05-13T23:22:39.660Z,97013.19
2023-05-13T23:25:09.067Z,97015.75
2023-05-13T23:27:36.603Z,97016.75
2023-05-13T23:30:04.630Z,97015.66
2023-05-13T23:32:33.448Z,97010.56
2023-05-13T23:35:01.317Z,97005.75
2023-05-13T23:37:28.864Z,97004.09
2023-05-13T23:39:56.339Z,97018.41
2023-05-13T23:42:23.837Z,97016.66
2023-05-13T23:44:51.957Z,97002.09
2023-05-13T23:47:19.540Z,97016.88
2023-05-13T23:49:48.442Z,97013.72
2023-05-13T23:52:16.871Z,97015.06
2023-05-13T23:54:44.391Z,97011.59
2023-05-13T23:57:11.931Z,97011.25
2023-05-13T23:59:40.195Z,97014.72
